EPWA Airport Information

Runway Information
Runway 11 Length 9186 ft width 164 ft
Elevation 361 ft Threshold ft Heading 115
Runway 29 Length 9186 ft Width 164 ft
Elevation 344 ft Threshold 1640 ft Heading 295
Runway 15 Length 12106 ft width 196 ft
Elevation 351 ft Threshold ft Heading 152
Runway 33 Length 12106 ft Width 196 ft
Elevation 351 ft Threshold ft Heading 332
Airport Frequencies
Type APP Name WARSZAWA A Frequency 128.8 MHZ
Type ATIS Name ATIS Frequency 120.45 MHZ
Type CLD Name CLNC DEL Frequency 121.6 MHZ
Type DIR Name WARSZAWA D Frequency 129.375 MHZ
Type GND Name GND Frequency 121.9 MHZ
Type TWR Name TWR Frequency 118.3 MHZ
Airport Navaids
Type VOR-DME Name Okecie Frequency 113400 KHZ
Type NDB Name Piaseczno Frequency 330 KHZ
Type NDB Name Warszawa Frequency 336 KHZ
Type NDB Name Warszawa Frequency 412 KHZ
Type VOR-DME Name Zaborowek Frequency 114900 KHZ
Airport Weather Information & NOTAM
ADDS - METARS form results

(1044 UTC 08 August 2022)
Data provider http://aviationweather.gov/metar/data/
 
METAR text: EPWA 081030Z VRB04KT CAVOK 23/10 Q1025 NOSIG
Conditions at: EPWA (WARSAW/OKECIE , PL) observed 1030 UTC 08 August 2022
Temperature: 23.0°C (73°F)
Dewpoint: 10.0°C (50°F) [RH = 44%]
Pressure (altimeter): 30.27 inches Hg (1025.0 mb)
Winds: variable direction winds at 5 MPH (4 knots; 2.1 m/s)
Visibility: 6 or more miles (10+ km)
Ceiling: ceiling and visibility are OK
Clouds: unknown
Weather: no significant weather observed at this time

METAR text: EPWA 081000Z 07005KT 030V100 CAVOK 22/10 Q1025 NOSIG
Conditions at: EPWA (WARSAW/OKECIE , PL) observed 1000 UTC 08 August 2022
Temperature: 22.0°C (72°F)
Dewpoint: 10.0°C (50°F) [RH = 46%]
Pressure (altimeter): 30.27 inches Hg (1025.0 mb)
Winds: from the ENE (70 degrees) at 6 MPH (5 knots; 2.6 m/s)
Visibility: 6 or more miles (10+ km)
Ceiling: ceiling and visibility are OK
Clouds: unknown
Weather: no significant weather observed at this time

Forecast for: EPWA (WARSAW/OKECIE , PL)
Text: TAF EPWA 080830Z 0809/0909 VRB04KT CAVOK
Forecast period: 0900 UTC 08 August 2022 to 0900 UTC 09 August 2022
Forecast type: FROM: standard forecast or significant change
Winds: variable direction winds at 5 MPH (4 knots; 2.1 m/s)
Visibility: 6 or more miles (10+ km)
Ceiling: unknown
Clouds: missing
Weather: NSW  (no significant weather)